This is the latest recevied weather packets stored in our database for station/object KC3ULW-13. If no packets are shown the sender has not sent any weather packets the latest 10 day(s).
| Time | Temp. | Humidity | Pressure | Rain* | Wind** | Luminosity | Snow |
|---|---|---|---|---|---|---|---|
| 1776961533 | 23.89° C | 54% | 1018.4 hPa | 0 mm | - | 623 W/m² | - |
| 1776961232 | 22.78° C | 54% | 1018.4 hPa | 0 mm | - | 645 W/m² | - |
| 1776960928 | 22.78° C | 55% | 1018.5 hPa | 0 mm | - | 615 W/m² | - |
| 1776960623 | 22.78° C | 54% | 1018.6 hPa | 0 mm | - | 613 W/m² | - |
| 1776960318 | 23.33° C | 54% | 1018.8 hPa | 0 mm | - | 668 W/m² | - |
| 1776960013 | 23.33° C | 54% | 1018.9 hPa | 0 mm | - | 712 W/m² | - |
| 1776959709 | 22.78° C | 55% | 1018.4 hPa | 0 mm | - | 686 W/m² | - |
| 1776959406 | 22.78° C | 55% | 1018.8 hPa | 0 mm | - | 700 W/m² | - |
| 1776959102 | 22.78° C | 56% | 1018.7 hPa | 0 mm | - | 635 W/m² | - |
| 1776958797 | 22.78° C | 57% | 1018.9 hPa | 0 mm | - | 685 W/m² | - |
| 1776958496 | 22.22° C | 59% | 1018.8 hPa | 0 mm | - | 688 W/m² | - |
| 1776958195 | 22.22° C | 58% | 1018.9 hPa | 0 mm | - | 679 W/m² | - |
| 1776957895 | 22.22° C | 59% | 1018.8 hPa | 0 mm | - | 644 W/m² | - |
| 1776957591 | 21.67° C | 62% | 1018.8 hPa | 0 mm | - | 668 W/m² | - |
| 1776957287 | 22.22° C | 60% | 1019.3 hPa | 0 mm | - | 709 W/m² | - |
| 1776956981 | 21.67° C | 61% | 1019.3 hPa | 0 mm | - | 713 W/m² | - |
| 1776956681 | 21.67° C | 63% | 1019.4 hPa | 0 mm | - | 714 W/m² | - |
| 1776956379 | 21.67° C | 62% | 1019.4 hPa | 0 mm | - | 650 W/m² | - |
| 1776956076 | 21.67° C | 63% | 1019.1 hPa | 0 mm | - | 625 W/m² | - |
| 1776955771 | 21.67° C | 64% | 1019.2 hPa | 0 mm | - | 578 W/m² | - |
| 1776955469 | 21.67° C | 62% | 1019.1 hPa | 0 mm | - | 605 W/m² | - |
| 1776955168 | 20.56° C | 64% | 1019.3 hPa | 0 mm | - | 587 W/m² | - |
| 1776954865 | 20° C | 67% | 1019.3 hPa | 0 mm | - | 554 W/m² | - |
| 1776954566 | 21.11° C | 65% | 1019.4 hPa | 0 mm | - | 540 W/m² | - |
| 1776954261 | 20.56° C | 65% | 1019.2 hPa | 0 mm | - | 591 W/m² | - |
* Rain latest hour (hover to see other rain measurements)
** Current wind speed in m/s (hover to see current wind gust speed)